sensor_id;sensor_type;location;lat;lon;timestamp;temperature;humidity
70534;SHT31;58088;51.186;17.130;2023-02-23T00:01:58;4.22;68.53
70534;SHT31;58088;51.186;17.130;2023-02-23T00:04:32;4.21;68.57
70534;SHT31;58088;51.186;17.130;2023-02-23T00:07:00;4.21;68.56
70534;SHT31;58088;51.186;17.130;2023-02-23T00:09:26;4.21;68.53
70534;SHT31;58088;51.186;17.130;2023-02-23T00:12:00;4.20;68.56
70534;SHT31;58088;51.186;17.130;2023-02-23T00:14:32;4.19;68.59
70534;SHT31;58088;51.186;17.130;2023-02-23T00:17:02;4.16;68.61
70534;SHT31;58088;51.186;17.130;2023-02-23T00:19:28;4.13;68.68
70534;SHT31;58088;51.186;17.130;2023-02-23T00:21:55;4.14;68.68
70534;SHT31;58088;51.186;17.130;2023-02-23T00:24:23;4.14;68.61
70534;SHT31;58088;51.186;17.130;2023-02-23T00:26:51;4.12;68.53
70534;SHT31;58088;51.186;17.130;2023-02-23T00:29:19;4.08;68.58
70534;SHT31;58088;51.186;17.130;2023-02-23T00:31:48;4.09;68.63
70534;SHT31;58088;51.186;17.130;2023-02-23T00:34:16;4.10;68.60
70534;SHT31;58088;51.186;17.130;2023-02-23T00:36:48;4.07;68.57
70534;SHT31;58088;51.186;17.130;2023-02-23T00:39:19;4.05;68.58
70534;SHT31;58088;51.186;17.130;2023-02-23T00:41:48;4.04;68.61
70534;SHT31;58088;51.186;17.130;2023-02-23T00:44:17;4.05;68.60
70534;SHT31;58088;51.186;17.130;2023-02-23T00:46:46;4.05;68.56
70534;SHT31;58088;51.186;17.130;2023-02-23T00:49:15;4.01;68.58
70534;SHT31;58088;51.186;17.130;2023-02-23T00:51:43;3.99;68.56
70534;SHT31;58088;51.186;17.130;2023-02-23T00:54:13;3.94;68.63
70534;SHT31;58088;51.186;17.130;2023-02-23T00:56:41;3.93;68.67
70534;SHT31;58088;51.186;17.130;2023-02-23T00:59:08;3.91;68.67
70534;SHT31;58088;51.186;17.130;2023-02-23T01:01:35;3.90;68.67
70534;SHT31;58088;51.186;17.130;2023-02-23T01:04:03;3.87;68.72
70534;SHT31;58088;51.186;17.130;2023-02-23T01:06:31;3.87;68.80
70534;SHT31;58088;51.186;17.130;2023-02-23T01:08:58;3.85;68.81
70534;SHT31;58088;51.186;17.130;2023-02-23T01:11:29;3.82;68.83
70534;SHT31;58088;51.186;17.130;2023-02-23T01:13:56;3.81;68.83
70534;SHT31;58088;51.186;17.130;2023-02-23T01:16:26;3.81;68.83
70534;SHT31;58088;51.186;17.130;2023-02-23T01:19:02;3.83;68.80
70534;SHT31;58088;51.186;17.130;2023-02-23T01:21:31;3.82;68.80
70534;SHT31;58088;51.186;17.130;2023-02-23T01:24:00;3.78;68.82
70534;SHT31;58088;51.186;17.130;2023-02-23T01:26:31;3.77;68.83
70534;SHT31;58088;51.186;17.130;2023-02-23T01:29:01;3.74;68.89
70534;SHT31;58088;51.186;17.130;2023-02-23T01:31:35;3.71;68.93
70534;SHT31;58088;51.186;17.130;2023-02-23T01:34:04;3.71;68.98
70534;SHT31;58088;51.186;17.130;2023-02-23T01:36:33;3.68;69.04
70534;SHT31;58088;51.186;17.130;2023-02-23T01:39:02;3.68;69.10
70534;SHT31;58088;51.186;17.130;2023-02-23T01:41:32;3.66;69.14
70534;SHT31;58088;51.186;17.130;2023-02-23T01:44:57;3.66;69.12
70534;SHT31;58088;51.186;17.130;2023-02-23T01:46:55;3.64;69.19
70534;SHT31;58088;51.186;17.130;2023-02-23T01:49:23;3.65;69.21
70534;SHT31;58088;51.186;17.130;2023-02-23T01:51:57;3.65;69.13
70534;SHT31;58088;51.186;17.130;2023-02-23T01:54:38;3.62;69.21
70534;SHT31;58088;51.186;17.130;2023-02-23T01:57:15;3.58;69.24
70534;SHT31;58088;51.186;17.130;2023-02-23T01:59:45;3.57;69.26
70534;SHT31;58088;51.186;17.130;2023-02-23T02:02:15;3.56;69.31
70534;SHT31;58088;51.186;17.130;2023-02-23T02:04:45;3.56;69.37
70534;SHT31;58088;51.186;17.130;2023-02-23T02:07:24;3.55;69.36
70534;SHT31;58088;51.186;17.130;2023-02-23T02:09:55;3.54;69.40
70534;SHT31;58088;51.186;17.130;2023-02-23T02:12:51;3.50;69.47
70534;SHT31;58088;51.186;17.130;2023-02-23T02:15:24;3.48;69.44
70534;SHT31;58088;51.186;17.130;2023-02-23T02:21:01;3.44;69.60
70534;SHT31;58088;51.186;17.130;2023-02-23T02:27:01;3.44;69.71
70534;SHT31;58088;51.186;17.130;2023-02-23T02:30:23;3.43;69.75
70534;SHT31;58088;51.186;17.130;2023-02-23T02:33:05;3.41;69.75
70534;SHT31;58088;51.186;17.130;2023-02-23T02:43:04;3.34;70.02
70534;SHT31;58088;51.186;17.130;2023-02-23T02:51:34;3.30;70.12
70534;SHT31;58088;51.186;17.130;2023-02-23T02:54:38;3.28;70.17
70534;SHT31;58088;51.186;17.130;2023-02-23T02:57:21;3.26;70.20
70534;SHT31;58088;51.186;17.130;2023-02-23T02:59:53;3.25;70.21
70534;SHT31;58088;51.186;17.130;2023-02-23T03:02:39;3.22;70.24
70534;SHT31;58088;51.186;17.130;2023-02-23T03:05:26;3.21;70.33
70534;SHT31;58088;51.186;17.130;2023-02-23T03:08:44;3.18;70.40
70534;SHT31;58088;51.186;17.130;2023-02-23T03:11:39;3.18;70.46
70534;SHT31;58088;51.186;17.130;2023-02-23T03:14:40;3.20;70.40
70534;SHT31;58088;51.186;17.130;2023-02-23T03:17:46;3.17;70.41
70534;SHT31;58088;51.186;17.130;2023-02-23T03:20:54;3.16;70.56
70534;SHT31;58088;51.186;17.130;2023-02-23T03:24:04;3.17;70.62
70534;SHT31;58088;51.186;17.130;2023-02-23T03:27:22;3.16;70.70
70534;SHT31;58088;51.186;17.130;2023-02-23T03:30:18;3.14;70.77
70534;SHT31;58088;51.186;17.130;2023-02-23T03:33:17;3.17;70.78
70534;SHT31;58088;51.186;17.130;2023-02-23T03:36:20;3.15;70.85
70534;SHT31;58088;51.186;17.130;2023-02-23T03:39:18;3.14;70.86
70534;SHT31;58088;51.186;17.130;2023-02-23T03:42:31;3.13;70.90
70534;SHT31;58088;51.186;17.130;2023-02-23T03:45:22;3.13;70.94
70534;SHT31;58088;51.186;17.130;2023-02-23T03:48:10;3.12;71.00
70534;SHT31;58088;51.186;17.130;2023-02-23T03:51:00;3.09;71.01
70534;SHT31;58088;51.186;17.130;2023-02-23T03:53:51;3.09;71.10
70534;SHT31;58088;51.186;17.130;2023-02-23T03:56:45;3.07;71.10
70534;SHT31;58088;51.186;17.130;2023-02-23T03:59:37;3.06;71.16
70534;SHT31;58088;51.186;17.130;2023-02-23T04:02:38;3.04;71.24
70534;SHT31;58088;51.186;17.130;2023-02-23T04:05:27;3.04;71.30
70534;SHT31;58088;51.186;17.130;2023-02-23T04:08:16;3.06;71.29
70534;SHT31;58088;51.186;17.130;2023-02-23T04:11:13;3.05;71.37
70534;SHT31;58088;51.186;17.130;2023-02-23T04:14:16;3.03;71.43
70534;SHT31;58088;51.186;17.130;2023-02-23T04:16:58;3.02;71.49
70534;SHT31;58088;51.186;17.130;2023-02-23T04:19:27;3.01;71.50
70534;SHT31;58088;51.186;17.130;2023-02-23T04:21:53;3.02;71.57
70534;SHT31;58088;51.186;17.130;2023-02-23T04:24:19;3.03;71.53
70534;SHT31;58088;51.186;17.130;2023-02-23T04:26:46;3.02;71.54
70534;SHT31;58088;51.186;17.130;2023-02-23T04:29:12;3.04;71.56
70534;SHT31;58088;51.186;17.130;2023-02-23T04:31:39;3.03;71.56
70534;SHT31;58088;51.186;17.130;2023-02-23T04:34:06;3.02;71.59
70534;SHT31;58088;51.186;17.130;2023-02-23T04:36:32;3.01;71.68
70534;SHT31;58088;51.186;17.130;2023-02-23T04:38:59;3.00;71.70
70534;SHT31;58088;51.186;17.130;2023-02-23T04:41:25;2.97;71.81
70534;SHT31;58088;51.186;17.130;2023-02-23T04:43:51;2.99;71.80
70534;SHT31;58088;51.186;17.130;2023-02-23T04:46:17;3.00;71.79
70534;SHT31;58088;51.186;17.130;2023-02-23T04:48:44;3.01;71.78
70534;SHT31;58088;51.186;17.130;2023-02-23T04:51:10;2.99;71.87
70534;SHT31;58088;51.186;17.130;2023-02-23T04:53:36;3.00;71.83
70534;SHT31;58088;51.186;17.130;2023-02-23T04:56:04;3.01;71.88
70534;SHT31;58088;51.186;17.130;2023-02-23T04:58:30;3.00;71.88
70534;SHT31;58088;51.186;17.130;2023-02-23T05:01:02;3.01;71.90
70534;SHT31;58088;51.186;17.130;2023-02-23T05:03:32;3.01;71.97
70534;SHT31;58088;51.186;17.130;2023-02-23T05:05:59;3.02;71.89
70534;SHT31;58088;51.186;17.130;2023-02-23T05:08:25;3.03;71.94
70534;SHT31;58088;51.186;17.130;2023-02-23T05:10:51;3.05;72.00
70534;SHT31;58088;51.186;17.130;2023-02-23T05:13:17;3.04;71.98
70534;SHT31;58088;51.186;17.130;2023-02-23T05:15:43;3.03;72.05
70534;SHT31;58088;51.186;17.130;2023-02-23T05:18:09;3.03;72.10
70534;SHT31;58088;51.186;17.130;2023-02-23T05:20:36;3.04;72.14
70534;SHT31;58088;51.186;17.130;2023-02-23T05:23:02;3.02;72.17
70534;SHT31;58088;51.186;17.130;2023-02-23T05:25:28;3.02;72.19
70534;SHT31;58088;51.186;17.130;2023-02-23T05:27:54;3.02;72.20
70534;SHT31;58088;51.186;17.130;2023-02-23T05:30:21;3.03;72.20
70534;SHT31;58088;51.186;17.130;2023-02-23T05:32:47;3.04;72.25
70534;SHT31;58088;51.186;17.130;2023-02-23T05:35:13;3.06;72.20
70534;SHT31;58088;51.186;17.130;2023-02-23T05:37:40;3.05;72.20
70534;SHT31;58088;51.186;17.130;2023-02-23T05:40:06;3.07;72.20
70534;SHT31;58088;51.186;17.130;2023-02-23T05:42:33;3.08;72.17
70534;SHT31;58088;51.186;17.130;2023-02-23T05:45:00;3.08;72.12
70534;SHT31;58088;51.186;17.130;2023-02-23T05:47:26;3.07;72.09
70534;SHT31;58088;51.186;17.130;2023-02-23T05:49:53;3.08;72.11
70534;SHT31;58088;51.186;17.130;2023-02-23T05:52:19;3.10;72.09
70534;SHT31;58088;51.186;17.130;2023-02-23T05:54:45;3.11;72.09
70534;SHT31;58088;51.186;17.130;2023-02-23T05:57:12;3.11;72.07
70534;SHT31;58088;51.186;17.130;2023-02-23T05:59:38;3.08;72.10
70534;SHT31;58088;51.186;17.130;2023-02-23T06:02:04;3.06;72.15
70534;SHT31;58088;51.186;17.130;2023-02-23T06:04:31;3.03;72.23
70534;SHT31;58088;51.186;17.130;2023-02-23T06:06:57;3.02;72.20
70534;SHT31;58088;51.186;17.130;2023-02-23T06:09:24;3.02;72.27
70534;SHT31;58088;51.186;17.130;2023-02-23T06:11:50;3.02;72.20
70534;SHT31;58088;51.186;17.130;2023-02-23T06:14:16;3.01;72.23
70534;SHT31;58088;51.186;17.130;2023-02-23T06:16:42;3.04;72.26
70534;SHT31;58088;51.186;17.130;2023-02-23T06:19:13;3.04;72.30
70534;SHT31;58088;51.186;17.130;2023-02-23T06:21:39;3.07;72.30
70534;SHT31;58088;51.186;17.130;2023-02-23T06:24:05;3.07;72.35
70534;SHT31;58088;51.186;17.130;2023-02-23T06:26:31;3.10;72.30
70534;SHT31;58088;51.186;17.130;2023-02-23T06:28:58;3.12;72.29
70534;SHT31;58088;51.186;17.130;2023-02-23T06:31:24;3.14;72.30
70534;SHT31;58088;51.186;17.130;2023-02-23T06:33:51;3.17;72.28
70534;SHT31;58088;51.186;17.130;2023-02-23T06:36:17;3.17;72.21
70534;SHT31;58088;51.186;17.130;2023-02-23T06:38:43;3.17;72.22
70534;SHT31;58088;51.186;17.130;2023-02-23T06:41:10;3.22;72.26
70534;SHT31;58088;51.186;17.130;2023-02-23T06:43:37;3.26;72.18
70534;SHT31;58088;51.186;17.130;2023-02-23T06:46:03;3.29;72.17
70534;SHT31;58088;51.186;17.130;2023-02-23T06:48:30;3.33;72.12
70534;SHT31;58088;51.186;17.130;2023-02-23T06:50:57;3.36;72.10
70534;SHT31;58088;51.186;17.130;2023-02-23T06:53:24;3.39;72.04
70534;SHT31;58088;51.186;17.130;2023-02-23T06:55:51;3.41;72.01
70534;SHT31;58088;51.186;17.130;2023-02-23T06:58:17;3.45;72.01
70534;SHT31;58088;51.186;17.130;2023-02-23T07:00:43;3.50;71.92
70534;SHT31;58088;51.186;17.130;2023-02-23T07:03:09;3.56;71.90
70534;SHT31;58088;51.186;17.130;2023-02-23T07:05:36;3.63;71.83
70534;SHT31;58088;51.186;17.130;2023-02-23T07:08:02;3.73;71.72
70534;SHT31;58088;51.186;17.130;2023-02-23T07:10:29;3.81;71.58
70534;SHT31;58088;51.186;17.130;2023-02-23T07:12:55;3.90;71.43
70534;SHT31;58088;51.186;17.130;2023-02-23T07:15:21;3.94;71.24
70534;SHT31;58088;51.186;17.130;2023-02-23T07:17:47;4.04;71.16
70534;SHT31;58088;51.186;17.130;2023-02-23T07:20:14;4.15;70.99
70534;SHT31;58088;51.186;17.130;2023-02-23T07:22:41;4.24;70.79
70534;SHT31;58088;51.186;17.130;2023-02-23T07:25:07;4.32;70.61
70534;SHT31;58088;51.186;17.130;2023-02-23T07:27:34;4.39;70.40
70534;SHT31;58088;51.186;17.130;2023-02-23T07:30:01;4.47;70.36
70534;SHT31;58088;51.186;17.130;2023-02-23T07:32:28;4.54;70.10
70534;SHT31;58088;51.186;17.130;2023-02-23T07:34:54;4.58;69.93
70534;SHT31;58088;51.186;17.130;2023-02-23T07:37:20;4.60;69.81
70534;SHT31;58088;51.186;17.130;2023-02-23T07:39:47;4.60;69.68
70534;SHT31;58088;51.186;17.130;2023-02-23T07:42:13;4.67;69.59
70534;SHT31;58088;51.186;17.130;2023-02-23T07:44:39;4.74;69.48
70534;SHT31;58088;51.186;17.130;2023-02-23T07:47:07;4.75;69.37
70534;SHT31;58088;51.186;17.130;2023-02-23T07:49:34;4.78;69.30
70534;SHT31;58088;51.186;17.130;2023-02-23T07:52:01;4.85;69.18
70534;SHT31;58088;51.186;17.130;2023-02-23T07:54:28;4.96;69.02
70534;SHT31;58088;51.186;17.130;2023-02-23T07:56:55;5.04;68.98
70534;SHT31;58088;51.186;17.130;2023-02-23T07:59:21;5.11;68.82
70534;SHT31;58088;51.186;17.130;2023-02-23T08:01:47;5.21;68.69
70534;SHT31;58088;51.186;17.130;2023-02-23T08:04:14;5.28;68.54
70534;SHT31;58088;51.186;17.130;2023-02-23T08:06:40;5.40;68.45
70534;SHT31;58088;51.186;17.130;2023-02-23T08:09:06;5.45;68.22
70534;SHT31;58088;51.186;17.130;2023-02-23T08:11:32;5.53;68.10
70534;SHT31;58088;51.186;17.130;2023-02-23T08:13:59;5.70;67.99
70534;SHT31;58088;51.186;17.130;2023-02-23T08:16:26;5.83;67.59
70534;SHT31;58088;51.186;17.130;2023-02-23T08:18:55;5.87;67.48
70534;SHT31;58088;51.186;17.130;2023-02-23T08:21:23;5.88;67.42
70534;SHT31;58088;51.186;17.130;2023-02-23T08:23:50;5.91;67.30
70534;SHT31;58088;51.186;17.130;2023-02-23T08:26:16;5.94;67.21
70534;SHT31;58088;51.186;17.130;2023-02-23T08:28:42;6.01;67.27
70534;SHT31;58088;51.186;17.130;2023-02-23T08:31:10;6.08;67.26
70534;SHT31;58088;51.186;17.130;2023-02-23T08:33:38;6.16;67.15
70534;SHT31;58088;51.186;17.130;2023-02-23T08:36:05;6.26;66.97
70534;SHT31;58088;51.186;17.130;2023-02-23T08:38:32;6.33;66.87
70534;SHT31;58088;51.186;17.130;2023-02-23T08:41:02;6.43;66.70
70534;SHT31;58088;51.186;17.130;2023-02-23T08:43:30;6.49;66.57
70534;SHT31;58088;51.186;17.130;2023-02-23T08:45:57;6.56;66.45
70534;SHT31;58088;51.186;17.130;2023-02-23T08:48:23;6.65;66.52
70534;SHT31;58088;51.186;17.130;2023-02-23T08:50:50;6.77;66.32
70534;SHT31;58088;51.186;17.130;2023-02-23T08:53:22;6.85;66.12
70534;SHT31;58088;51.186;17.130;2023-02-23T08:55:56;6.88;65.76
70534;SHT31;58088;51.186;17.130;2023-02-23T08:58:28;6.91;65.52
70534;SHT31;58088;51.186;17.130;2023-02-23T09:00:55;6.93;65.53
70534;SHT31;58088;51.186;17.130;2023-02-23T09:03:23;7.01;65.57
70534;SHT31;58088;51.186;17.130;2023-02-23T09:05:51;7.14;65.64
70534;SHT31;58088;51.186;17.130;2023-02-23T09:08:18;7.30;65.73
70534;SHT31;58088;51.186;17.130;2023-02-23T09:10:45;7.45;65.34
70534;SHT31;58088;51.186;17.130;2023-02-23T09:13:11;7.60;65.20
70534;SHT31;58088;51.186;17.130;2023-02-23T09:15:39;7.72;64.93
70534;SHT31;58088;51.186;17.130;2023-02-23T09:18:06;7.81;64.79
70534;SHT31;58088;51.186;17.130;2023-02-23T09:20:41;7.91;64.59
70534;SHT31;58088;51.186;17.130;2023-02-23T09:23:10;8.01;64.17
70534;SHT31;58088;51.186;17.130;2023-02-23T09:25:38;8.09;64.14
70534;SHT31;58088;51.186;17.130;2023-02-23T09:28:12;8.18;64.25
70534;SHT31;58088;51.186;17.130;2023-02-23T09:30:43;8.26;64.04
70534;SHT31;58088;51.186;17.130;2023-02-23T09:33:11;8.29;63.68
70534;SHT31;58088;51.186;17.130;2023-02-23T09:35:38;8.26;63.51
70534;SHT31;58088;51.186;17.130;2023-02-23T09:38:06;8.31;63.56
70534;SHT31;58088;51.186;17.130;2023-02-23T09:40:52;8.42;63.68
70534;SHT31;58088;51.186;17.130;2023-02-23T09:46:17;8.66;63.15
70534;SHT31;58088;51.186;17.130;2023-02-23T09:49:10;8.81;62.92
70534;SHT31;58088;51.186;17.130;2023-02-23T09:51:45;8.92;62.72
70534;SHT31;58088;51.186;17.130;2023-02-23T09:54:22;9.05;62.37
70534;SHT31;58088;51.186;17.130;2023-02-23T09:56:54;9.15;62.11
70534;SHT31;58088;51.186;17.130;2023-02-23T09:59:23;9.21;61.88
70534;SHT31;58088;51.186;17.130;2023-02-23T10:01:55;9.29;61.64
70534;SHT31;58088;51.186;17.130;2023-02-23T10:07:05;9.49;61.73
70534;SHT31;58088;51.186;17.130;2023-02-23T10:09:58;9.52;61.35
70534;SHT31;58088;51.186;17.130;2023-02-23T10:21:04;9.74;60.91
70534;SHT31;58088;51.186;17.130;2023-02-23T10:23:40;9.74;60.79
70534;SHT31;58088;51.186;17.130;2023-02-23T10:26:21;9.74;60.55
70534;SHT31;58088;51.186;17.130;2023-02-23T10:28:51;9.74;60.50
70534;SHT31;58088;51.186;17.130;2023-02-23T10:31:27;9.74;60.28
70534;SHT31;58088;51.186;17.130;2023-02-23T10:34:03;9.76;60.21
70534;SHT31;58088;51.186;17.130;2023-02-23T10:36:40;9.79;60.47
70534;SHT31;58088;51.186;17.130;2023-02-23T10:39:14;9.87;60.51
70534;SHT31;58088;51.186;17.130;2023-02-23T10:41:41;9.98;60.59
70534;SHT31;58088;51.186;17.130;2023-02-23T10:44:10;10.12;60.45
70534;SHT31;58088;51.186;17.130;2023-02-23T10:46:45;10.28;60.57
70534;SHT31;58088;51.186;17.130;2023-02-23T10:52:11;10.48;59.89
70534;SHT31;58088;51.186;17.130;2023-02-23T10:55:03;10.51;59.63
70534;SHT31;58088;51.186;17.130;2023-02-23T10:57:33;10.57;59.75
70534;SHT31;58088;51.186;17.130;2023-02-23T11:02:43;10.66;59.52
70534;SHT31;58088;51.186;17.130;2023-02-23T11:08:16;10.85;58.98
70534;SHT31;58088;51.186;17.130;2023-02-23T11:10:55;10.85;59.05
70534;SHT31;58088;51.186;17.130;2023-02-23T11:13:26;10.91;58.90
70534;SHT31;58088;51.186;17.130;2023-02-23T11:16:00;10.91;58.81
70534;SHT31;58088;51.186;17.130;2023-02-23T11:18:41;10.93;58.82
70534;SHT31;58088;51.186;17.130;2023-02-23T11:21:26;10.91;58.60
70534;SHT31;58088;51.186;17.130;2023-02-23T11:24:00;10.96;58.70
70534;SHT31;58088;51.186;17.130;2023-02-23T11:26:47;11.02;58.71
70534;SHT31;58088;51.186;17.130;2023-02-23T11:32:14;11.10;58.54
70534;SHT31;58088;51.186;17.130;2023-02-23T11:34:45;11.13;58.28
70534;SHT31;58088;51.186;17.130;2023-02-23T11:37:33;11.16;58.30
70534;SHT31;58088;51.186;17.130;2023-02-23T11:40:02;11.21;58.22
70534;SHT31;58088;51.186;17.130;2023-02-23T11:42:55;11.21;58.03
70534;SHT31;58088;51.186;17.130;2023-02-23T11:45:48;11.20;57.89
70534;SHT31;58088;51.186;17.130;2023-02-23T11:48:29;11.18;57.96
70534;SHT31;58088;51.186;17.130;2023-02-23T11:51:01;11.17;57.87
70534;SHT31;58088;51.186;17.130;2023-02-23T11:53:33;11.11;58.02
70534;SHT31;58088;51.186;17.130;2023-02-23T11:56:05;11.03;58.23
70534;SHT31;58088;51.186;17.130;2023-02-23T11:58:38;11.03;58.45
70534;SHT31;58088;51.186;17.130;2023-02-23T12:04:09;11.07;58.26
70534;SHT31;58088;51.186;17.130;2023-02-23T12:07:44;11.02;58.49
70534;SHT31;58088;51.186;17.130;2023-02-23T12:10:05;11.01;58.62
70534;SHT31;58088;51.186;17.130;2023-02-23T12:15:51;11.11;58.90
70534;SHT31;58088;51.186;17.130;2023-02-23T12:18:35;11.13;58.94
70534;SHT31;58088;51.186;17.130;2023-02-23T12:21:26;11.15;58.71
70534;SHT31;58088;51.186;17.130;2023-02-23T12:26:48;11.12;58.98
70534;SHT31;58088;51.186;17.130;2023-02-23T12:32:26;11.30;59.08
70534;SHT31;58088;51.186;17.130;2023-02-23T12:34:59;11.38;58.78
70534;SHT31;58088;51.186;17.130;2023-02-23T12:40:13;11.57;58.62
70534;SHT31;58088;51.186;17.130;2023-02-23T12:42:57;11.59;58.66
70534;SHT31;58088;51.186;17.130;2023-02-23T12:48:22;11.59;58.70
70534;SHT31;58088;51.186;17.130;2023-02-23T12:50:54;11.65;59.11
70534;SHT31;58088;51.186;17.130;2023-02-23T12:53:36;11.71;58.92
70534;SHT31;58088;51.186;17.130;2023-02-23T12:56:29;11.74;58.62
70534;SHT31;58088;51.186;17.130;2023-02-23T13:02:21;11.77;58.98
70534;SHT31;58088;51.186;17.130;2023-02-23T13:07:52;11.91;58.85
70534;SHT31;58088;51.186;17.130;2023-02-23T13:16:16;11.98;58.84
70534;SHT31;58088;51.186;17.130;2023-02-23T13:19:06;12.06;58.82
70534;SHT31;58088;51.186;17.130;2023-02-23T13:24:39;12.15;58.80
70534;SHT31;58088;51.186;17.130;2023-02-23T13:30:03;12.20;58.52
70534;SHT31;58088;51.186;17.130;2023-02-23T13:32:33;12.26;58.54
70534;SHT31;58088;51.186;17.130;2023-02-23T13:35:03;12.31;58.49
70534;SHT31;58088;51.186;17.130;2023-02-23T13:37:40;12.39;58.64
70534;SHT31;58088;51.186;17.130;2023-02-23T13:40:14;12.42;58.44
70534;SHT31;58088;51.186;17.130;2023-02-23T13:52:29;12.53;58.41
70534;SHT31;58088;51.186;17.130;2023-02-23T13:57:53;12.68;58.62
70534;SHT31;58088;51.186;17.130;2023-02-23T14:00:36;12.73;58.55
70534;SHT31;58088;51.186;17.130;2023-02-23T14:03:03;12.80;58.48
70534;SHT31;58088;51.186;17.130;2023-02-23T14:05:40;12.79;58.33
70534;SHT31;58088;51.186;17.130;2023-02-23T14:08:18;12.81;58.49
70534;SHT31;58088;51.186;17.130;2023-02-23T14:10:59;12.84;58.55
70534;SHT31;58088;51.186;17.130;2023-02-23T14:13:38;12.87;58.49
70534;SHT31;58088;51.186;17.130;2023-02-23T14:16:14;12.90;58.43
70534;SHT31;58088;51.186;17.130;2023-02-23T14:18:55;12.92;58.42
70534;SHT31;58088;51.186;17.130;2023-02-23T14:32:45;13.14;58.20
70534;SHT31;58088;51.186;17.130;2023-02-23T14:38:21;13.18;58.18
70534;SHT31;58088;51.186;17.130;2023-02-23T14:40:58;13.20;58.18
70534;SHT31;58088;51.186;17.130;2023-02-23T14:46:03;13.17;58.12
70534;SHT31;58088;51.186;17.130;2023-02-23T14:48:38;13.15;58.10
70534;SHT31;58088;51.186;17.130;2023-02-23T14:51:10;13.10;58.12
70534;SHT31;58088;51.186;17.130;2023-02-23T14:53:45;13.03;58.14
70534;SHT31;58088;51.186;17.130;2023-02-23T14:56:21;12.97;58.27
70534;SHT31;58088;51.186;17.130;2023-02-23T14:58:50;12.93;58.40
70534;SHT31;58088;51.186;17.130;2023-02-23T15:01:33;12.91;58.65
70534;SHT31;58088;51.186;17.130;2023-02-23T15:06:59;12.91;58.59
70534;SHT31;58088;51.186;17.130;2023-02-23T15:09:31;12.90;58.64
70534;SHT31;58088;51.186;17.130;2023-02-23T15:12:45;12.89;58.53
70534;SHT31;58088;51.186;17.130;2023-02-23T15:14:55;12.89;58.60
70534;SHT31;58088;51.186;17.130;2023-02-23T15:17:26;12.89;58.64
70534;SHT31;58088;51.186;17.130;2023-02-23T15:19:57;12.91;58.55
70534;SHT31;58088;51.186;17.130;2023-02-23T15:22:35;12.95;58.45
70534;SHT31;58088;51.186;17.130;2023-02-23T15:25:19;12.89;58.42
70534;SHT31;58088;51.186;17.130;2023-02-23T15:27:50;12.87;58.60
70534;SHT31;58088;51.186;17.130;2023-02-23T15:30:19;12.88;58.67
70534;SHT31;58088;51.186;17.130;2023-02-23T15:32:48;12.90;58.64
70534;SHT31;58088;51.186;17.130;2023-02-23T15:35:28;12.85;58.79
70534;SHT31;58088;51.186;17.130;2023-02-23T15:38:00;12.87;59.29
70534;SHT31;58088;51.186;17.130;2023-02-23T15:40:28;12.92;59.02
70534;SHT31;58088;51.186;17.130;2023-02-23T15:42:55;12.86;59.11
70534;SHT31;58088;51.186;17.130;2023-02-23T15:47:55;12.71;59.42
70534;SHT31;58088;51.186;17.130;2023-02-23T15:50:27;12.69;59.52
70534;SHT31;58088;51.186;17.130;2023-02-23T15:53:02;12.67;59.62
70534;SHT31;58088;51.186;17.130;2023-02-23T15:55:38;12.60;59.75
70534;SHT31;58088;51.186;17.130;2023-02-23T15:58:23;12.55;59.79
70534;SHT31;58088;51.186;17.130;2023-02-23T16:00:58;12.53;59.80
70534;SHT31;58088;51.186;17.130;2023-02-23T16:03:38;12.49;59.87
70534;SHT31;58088;51.186;17.130;2023-02-23T16:08:57;12.40;60.09
70534;SHT31;58088;51.186;17.130;2023-02-23T16:11:55;12.37;60.21
70534;SHT31;58088;51.186;17.130;2023-02-23T16:14:34;12.35;60.31
70534;SHT31;58088;51.186;17.130;2023-02-23T16:17:23;12.29;60.44
70534;SHT31;58088;51.186;17.130;2023-02-23T16:19:53;12.23;60.55
70534;SHT31;58088;51.186;17.130;2023-02-23T16:22:48;12.16;60.63
70534;SHT31;58088;51.186;17.130;2023-02-23T16:25:19;12.13;60.69
70534;SHT31;58088;51.186;17.130;2023-02-23T16:27:54;12.09;60.70
70534;SHT31;58088;51.186;17.130;2023-02-23T16:33:49;12.00;60.83
70534;SHT31;58088;51.186;17.130;2023-02-23T16:36:24;11.99;60.80
70534;SHT31;58088;51.186;17.130;2023-02-23T16:39:05;11.94;60.87
70534;SHT31;58088;51.186;17.130;2023-02-23T16:41:37;11.84;61.07
70534;SHT31;58088;51.186;17.130;2023-02-23T16:44:05;11.79;61.22
70534;SHT31;58088;51.186;17.130;2023-02-23T16:49:28;11.70;61.43
70534;SHT31;58088;51.186;17.130;2023-02-23T16:51:56;11.65;61.49
70534;SHT31;58088;51.186;17.130;2023-02-23T16:54:26;11.59;61.61
70534;SHT31;58088;51.186;17.130;2023-02-23T16:56:54;11.55;61.72
70534;SHT31;58088;51.186;17.130;2023-02-23T16:59:21;11.58;61.73
70534;SHT31;58088;51.186;17.130;2023-02-23T17:01:49;11.60;61.67
70534;SHT31;58088;51.186;17.130;2023-02-23T17:04:16;11.56;61.73
70534;SHT31;58088;51.186;17.130;2023-02-23T17:06:44;11.49;61.78
70534;SHT31;58088;51.186;17.130;2023-02-23T17:09:20;11.46;61.83
70534;SHT31;58088;51.186;17.130;2023-02-23T17:11:46;11.40;61.89
70534;SHT31;58088;51.186;17.130;2023-02-23T17:14:18;11.32;62.02
70534;SHT31;58088;51.186;17.130;2023-02-23T17:16:52;11.29;62.11
70534;SHT31;58088;51.186;17.130;2023-02-23T17:19:19;11.26;62.12
70534;SHT31;58088;51.186;17.130;2023-02-23T17:21:45;11.24;62.19
70534;SHT31;58088;51.186;17.130;2023-02-23T17:24:13;11.18;62.29
70534;SHT31;58088;51.186;17.130;2023-02-23T17:26:39;11.11;62.41
70534;SHT31;58088;51.186;17.130;2023-02-23T17:29:06;11.08;62.52
70534;SHT31;58088;51.186;17.130;2023-02-23T17:31:35;11.07;62.58
70534;SHT31;58088;51.186;17.130;2023-02-23T17:34:02;11.06;62.61
70534;SHT31;58088;51.186;17.130;2023-02-23T17:36:29;10.98;62.73
70534;SHT31;58088;51.186;17.130;2023-02-23T17:38:55;10.93;62.87
70534;SHT31;58088;51.186;17.130;2023-02-23T17:41:25;10.87;63.01
70534;SHT31;58088;51.186;17.130;2023-02-23T17:43:52;10.87;63.48
70534;SHT31;58088;51.186;17.130;2023-02-23T17:46:19;10.91;63.27
70534;SHT31;58088;51.186;17.130;2023-02-23T17:48:46;10.88;63.20
70534;SHT31;58088;51.186;17.130;2023-02-23T17:51:13;10.85;63.27
70534;SHT31;58088;51.186;17.130;2023-02-23T17:53:41;10.81;63.29
70534;SHT31;58088;51.186;17.130;2023-02-23T17:56:09;10.80;63.35
70534;SHT31;58088;51.186;17.130;2023-02-23T17:58:36;10.79;63.37
70534;SHT31;58088;51.186;17.130;2023-02-23T18:01:05;10.77;63.41
70534;SHT31;58088;51.186;17.130;2023-02-23T18:03:34;10.77;63.43
70534;SHT31;58088;51.186;17.130;2023-02-23T18:06:09;10.75;63.49
70534;SHT31;58088;51.186;17.130;2023-02-23T18:08:39;10.73;63.51